sensor_id;sensor_type;location;lat;lon;timestamp;pressure;altitude;pressure_sealevel;temperature;humidity
63708;BME280;67643;-34.198;22.084;2023-08-06T00:00:26;100732.96;;;18.00;45.34
63708;BME280;67643;-34.198;22.084;2023-08-06T00:02:55;100737.84;;;18.07;45.28
63708;BME280;67643;-34.198;22.084;2023-08-06T00:05:23;100739.65;;;18.12;44.83
63708;BME280;67643;-34.198;22.084;2023-08-06T00:07:51;100738.28;;;18.01;45.33
63708;BME280;67643;-34.198;22.084;2023-08-06T00:10:21;100736.07;;;18.10;45.25
63708;BME280;67643;-34.198;22.084;2023-08-06T00:12:49;100737.51;;;17.81;45.27
63708;BME280;67643;-34.198;22.084;2023-08-06T00:15:19;100735.45;;;18.04;45.31
63708;BME280;67643;-34.198;22.084;2023-08-06T00:17:47;100732.86;;;17.94;45.55
63708;BME280;67643;-34.198;22.084;2023-08-06T00:20:16;100740.95;;;17.93;45.54
63708;BME280;67643;-34.198;22.084;2023-08-06T00:22:44;100746.03;;;18.14;45.18
63708;BME280;67643;-34.198;22.084;2023-08-06T00:25:13;100738.10;;;18.09;45.28
63708;BME280;67643;-34.198;22.084;2023-08-06T00:27:41;100734.75;;;17.93;45.48
63708;BME280;67643;-34.198;22.084;2023-08-06T00:30:11;100742.66;;;18.03;45.33
63708;BME280;67643;-34.198;22.084;2023-08-06T00:32:39;100742.86;;;17.90;45.48
63708;BME280;67643;-34.198;22.084;2023-08-06T00:35:08;100731.82;;;18.03;45.33
63708;BME280;67643;-34.198;22.084;2023-08-06T00:37:36;100735.27;;;17.87;45.57
63708;BME280;67643;-34.198;22.084;2023-08-06T00:40:05;100742.28;;;17.94;45.52
63708;BME280;67643;-34.198;22.084;2023-08-06T00:42:34;100736.93;;;17.89;45.59
63708;BME280;67643;-34.198;22.084;2023-08-06T00:45:03;100738.60;;;17.96;45.45
63708;BME280;67643;-34.198;22.084;2023-08-06T00:47:31;100740.74;;;17.73;45.81
63708;BME280;67643;-34.198;22.084;2023-08-06T00:50:00;100744.43;;;18.16;45.53
63708;BME280;67643;-34.198;22.084;2023-08-06T00:52:28;100743.72;;;18.05;45.29
63708;BME280;67643;-34.198;22.084;2023-08-06T00:54:57;100738.96;;;17.83;45.30
63708;BME280;67643;-34.198;22.084;2023-08-06T00:57:25;100734.97;;;17.94;45.48
63708;BME280;67643;-34.198;22.084;2023-08-06T00:59:54;100731.94;;;17.81;45.69
63708;BME280;67643;-34.198;22.084;2023-08-06T01:02:22;100729.12;;;17.92;45.50
63708;BME280;67643;-34.198;22.084;2023-08-06T01:04:51;100738.11;;;17.81;45.64
63708;BME280;67643;-34.198;22.084;2023-08-06T01:07:31;100736.30;;;17.85;45.61
63708;BME280;67643;-34.198;22.084;2023-08-06T01:10:15;100745.88;;;17.86;45.57
63708;BME280;67643;-34.198;22.084;2023-08-06T01:12:54;100754.87;;;17.96;45.40
63708;BME280;67643;-34.198;22.084;2023-08-06T01:15:30;100761.49;;;17.72;45.84
63708;BME280;67643;-34.198;22.084;2023-08-06T01:18:01;100761.00;;;18.03;45.78
63708;BME280;67643;-34.198;22.084;2023-08-06T01:20:30;100760.53;;;17.93;45.54
63708;BME280;67643;-34.198;22.084;2023-08-06T01:22:59;100763.41;;;18.01;45.77
63708;BME280;67643;-34.198;22.084;2023-08-06T01:25:33;100762.22;;;17.84;45.65
63708;BME280;67643;-34.198;22.084;2023-08-06T01:28:06;100770.07;;;17.82;45.70
63708;BME280;67643;-34.198;22.084;2023-08-06T01:30:42;100772.22;;;17.87;45.65
63708;BME280;67643;-34.198;22.084;2023-08-06T01:33:19;100776.70;;;17.78;45.69
63708;BME280;67643;-34.198;22.084;2023-08-06T01:35:50;100776.07;;;17.74;45.78
63708;BME280;67643;-34.198;22.084;2023-08-06T01:38:19;100781.44;;;17.56;46.11
63708;BME280;67643;-34.198;22.084;2023-08-06T01:40:48;100795.65;;;17.83;45.60
63708;BME280;67643;-34.198;22.084;2023-08-06T01:43:16;100811.31;;;17.52;46.06
63708;BME280;67643;-34.198;22.084;2023-08-06T01:45:45;100814.80;;;17.83;45.51
63708;BME280;67643;-34.198;22.084;2023-08-06T01:48:13;100818.27;;;17.58;45.91
63708;BME280;67643;-34.198;22.084;2023-08-06T01:50:42;100818.20;;;17.75;45.61
63708;BME280;67643;-34.198;22.084;2023-08-06T01:53:11;100823.43;;;17.84;45.46
63708;BME280;67643;-34.198;22.084;2023-08-06T01:55:39;100830.35;;;17.59;45.85
63708;BME280;67643;-34.198;22.084;2023-08-06T01:58:08;100833.20;;;17.58;45.82
63708;BME280;67643;-34.198;22.084;2023-08-06T02:00:36;100840.53;;;17.55;45.78
63708;BME280;67643;-34.198;22.084;2023-08-06T02:03:05;100846.57;;;17.59;45.71
63708;BME280;67643;-34.198;22.084;2023-08-06T02:05:33;100851.16;;;18.05;45.77
63708;BME280;67643;-34.198;22.084;2023-08-06T02:08:02;100858.69;;;17.76;45.45
63708;BME280;67643;-34.198;22.084;2023-08-06T02:10:31;100865.50;;;18.06;45.29
63708;BME280;67643;-34.198;22.084;2023-08-06T02:12:59;100872.00;;;18.18;45.47
63708;BME280;67643;-34.198;22.084;2023-08-06T02:15:28;100878.12;;;17.66;45.45
63708;BME280;67643;-34.198;22.084;2023-08-06T02:17:56;100880.01;;;17.81;45.21
63708;BME280;67643;-34.198;22.084;2023-08-06T02:20:24;100876.40;;;17.88;45.50
63708;BME280;67643;-34.198;22.084;2023-08-06T02:22:53;100879.84;;;17.60;45.46
63708;BME280;67643;-34.198;22.084;2023-08-06T02:25:21;100884.89;;;17.90;45.43
63708;BME280;67643;-34.198;22.084;2023-08-06T02:27:49;100884.97;;;17.79;45.56
63708;BME280;67643;-34.198;22.084;2023-08-06T02:30:19;100888.14;;;17.67;45.29
63708;BME280;67643;-34.198;22.084;2023-08-06T02:32:48;100890.67;;;17.93;45.31
63708;BME280;67643;-34.198;22.084;2023-08-06T02:35:16;100894.89;;;17.76;45.17
63708;BME280;67643;-34.198;22.084;2023-08-06T02:37:44;100901.93;;;17.65;45.26
63708;BME280;67643;-34.198;22.084;2023-08-06T02:40:13;100903.42;;;17.62;45.29
63708;BME280;67643;-34.198;22.084;2023-08-06T02:42:41;100901.54;;;18.13;45.24
63708;BME280;67643;-34.198;22.084;2023-08-06T02:45:10;100906.28;;;17.67;45.16
63708;BME280;67643;-34.198;22.084;2023-08-06T02:47:39;100910.00;;;17.87;44.87
63708;BME280;67643;-34.198;22.084;2023-08-06T02:50:07;100919.62;;;17.75;44.99
63708;BME280;67643;-34.198;22.084;2023-08-06T02:52:36;100927.71;;;18.05;44.88
63708;BME280;67643;-34.198;22.084;2023-08-06T02:55:05;100928.07;;;17.66;45.10
63708;BME280;67643;-34.198;22.084;2023-08-06T02:57:34;100931.07;;;17.69;45.05
63708;BME280;67643;-34.198;22.084;2023-08-06T03:00:02;100938.81;;;17.63;45.15
63708;BME280;67643;-34.198;22.084;2023-08-06T03:02:30;100945.73;;;18.15;45.09
63708;BME280;67643;-34.198;22.084;2023-08-06T03:04:59;100944.10;;;17.69;45.00
63708;BME280;67643;-34.198;22.084;2023-08-06T03:07:27;100943.21;;;17.92;45.03
63708;BME280;67643;-34.198;22.084;2023-08-06T03:09:55;100951.25;;;17.64;45.05
63708;BME280;67643;-34.198;22.084;2023-08-06T03:12:24;100950.92;;;17.62;45.07
63708;BME280;67643;-34.198;22.084;2023-08-06T03:14:53;100946.93;;;17.89;45.03
63708;BME280;67643;-34.198;22.084;2023-08-06T03:17:21;100939.72;;;18.00;44.83
63708;BME280;67643;-34.198;22.084;2023-08-06T03:19:50;100945.63;;;17.81;44.72
63708;BME280;67643;-34.198;22.084;2023-08-06T03:22:19;100951.10;;;17.77;44.72
63708;BME280;67643;-34.198;22.084;2023-08-06T03:24:50;100951.92;;;17.92;44.85
63708;BME280;67643;-34.198;22.084;2023-08-06T03:27:19;100956.24;;;17.77;44.69
63708;BME280;67643;-34.198;22.084;2023-08-06T03:29:49;100959.51;;;17.89;44.44
63708;BME280;67643;-34.198;22.084;2023-08-06T03:32:18;100962.24;;;17.93;44.33
63708;BME280;67643;-34.198;22.084;2023-08-06T03:34:47;100960.35;;;17.87;44.30
63708;BME280;67643;-34.198;22.084;2023-08-06T03:37:15;100963.78;;;18.16;43.86
63708;BME280;67643;-34.198;22.084;2023-08-06T03:39:43;100970.89;;;18.20;43.71
63708;BME280;67643;-34.198;22.084;2023-08-06T03:42:12;100971.65;;;18.17;43.70
63708;BME280;67643;-34.198;22.084;2023-08-06T03:44:40;100970.50;;;18.15;43.75
63708;BME280;67643;-34.198;22.084;2023-08-06T03:47:08;100972.31;;;18.04;43.88
63708;BME280;67643;-34.198;22.084;2023-08-06T03:49:36;100975.02;;;18.03;43.86
63708;BME280;67643;-34.198;22.084;2023-08-06T03:52:06;100977.19;;;17.99;43.93
63708;BME280;67643;-34.198;22.084;2023-08-06T03:54:34;100974.39;;;17.95;43.93
63708;BME280;67643;-34.198;22.084;2023-08-06T03:57:03;100977.29;;;18.13;44.01
63708;BME280;67643;-34.198;22.084;2023-08-06T03:59:31;100979.64;;;17.82;44.09
63708;BME280;67643;-34.198;22.084;2023-08-06T04:02:00;100983.57;;;17.80;44.09
63708;BME280;67643;-34.198;22.084;2023-08-06T04:04:29;100986.39;;;17.85;43.98
63708;BME280;67643;-34.198;22.084;2023-08-06T04:06:57;100995.16;;;18.12;44.04
63708;BME280;67643;-34.198;22.084;2023-08-06T04:09:27;101003.40;;;18.37;44.05
63708;BME280;67643;-34.198;22.084;2023-08-06T04:11:56;101004.40;;;17.89;43.96
63708;BME280;67643;-34.198;22.084;2023-08-06T04:14:26;101011.64;;;18.24;44.12
63708;BME280;67643;-34.198;22.084;2023-08-06T04:16:55;101017.33;;;17.79;44.14
63708;BME280;67643;-34.198;22.084;2023-08-06T04:19:23;101017.84;;;18.08;44.06
63708;BME280;67643;-34.198;22.084;2023-08-06T04:21:52;101027.39;;;17.79;44.08
63708;BME280;67643;-34.198;22.084;2023-08-06T04:24:20;101028.08;;;17.82;44.05
63708;BME280;67643;-34.198;22.084;2023-08-06T04:26:49;101025.87;;;17.81;44.04
63708;BME280;67643;-34.198;22.084;2023-08-06T04:29:17;101028.87;;;17.87;43.93
63708;BME280;67643;-34.198;22.084;2023-08-06T04:31:46;101030.08;;;18.17;43.93
63708;BME280;67643;-34.198;22.084;2023-08-06T04:34:15;101026.03;;;17.86;43.93
63708;BME280;67643;-34.198;22.084;2023-08-06T04:36:44;101020.46;;;18.43;43.83
63708;BME280;67643;-34.198;22.084;2023-08-06T04:39:12;101022.52;;;17.87;43.93
63708;BME280;67643;-34.198;22.084;2023-08-06T04:41:41;101023.02;;;17.72;44.07
63708;BME280;67643;-34.198;22.084;2023-08-06T04:44:09;101023.72;;;17.69;44.14
63708;BME280;67643;-34.198;22.084;2023-08-06T04:46:38;101027.90;;;18.25;44.03
63708;BME280;67643;-34.198;22.084;2023-08-06T04:49:06;101027.92;;;17.64;44.19
63708;BME280;67643;-34.198;22.084;2023-08-06T04:51:35;101024.24;;;17.69;44.13
63708;BME280;67643;-34.198;22.084;2023-08-06T04:54:04;101022.55;;;18.22;44.07
63708;BME280;67643;-34.198;22.084;2023-08-06T04:56:32;101028.34;;;18.11;44.24
63708;BME280;67643;-34.198;22.084;2023-08-06T04:59:01;101032.97;;;18.16;44.15
63708;BME280;67643;-34.198;22.084;2023-08-06T05:01:29;101035.59;;;17.72;44.08
63708;BME280;67643;-34.198;22.084;2023-08-06T05:03:57;101038.34;;;17.70;44.09
63708;BME280;67643;-34.198;22.084;2023-08-06T05:06:26;101042.34;;;18.17;44.12
63708;BME280;67643;-34.198;22.084;2023-08-06T05:08:54;101043.64;;;17.85;44.29
63708;BME280;67643;-34.198;22.084;2023-08-06T05:11:23;101045.96;;;18.09;44.23
63708;BME280;67643;-34.198;22.084;2023-08-06T05:13:52;101051.22;;;18.15;44.16
63708;BME280;67643;-34.198;22.084;2023-08-06T05:16:20;101055.25;;;17.66;44.15
63708;BME280;67643;-34.198;22.084;2023-08-06T05:18:49;101064.21;;;17.58;44.35
63708;BME280;67643;-34.198;22.084;2023-08-06T05:21:17;101069.56;;;17.78;44.40
63708;BME280;67643;-34.198;22.084;2023-08-06T05:23:46;101075.55;;;17.60;44.24
63708;BME280;67643;-34.198;22.084;2023-08-06T05:26:15;101080.74;;;17.60;44.20
63708;BME280;67643;-34.198;22.084;2023-08-06T05:28:43;101085.82;;;17.61;44.23
63708;BME280;67643;-34.198;22.084;2023-08-06T05:31:11;101085.97;;;17.65;44.13
63708;BME280;67643;-34.198;22.084;2023-08-06T05:33:40;101083.73;;;18.20;44.01
63708;BME280;67643;-34.198;22.084;2023-08-06T05:36:08;101084.87;;;17.89;44.19
63708;BME280;67643;-34.198;22.084;2023-08-06T05:38:37;101089.14;;;17.88;44.23
63708;BME280;67643;-34.198;22.084;2023-08-06T05:41:06;101091.64;;;18.10;44.19
63708;BME280;67643;-34.198;22.084;2023-08-06T05:43:34;101093.69;;;17.88;44.16
63708;BME280;67643;-34.198;22.084;2023-08-06T05:46:03;101104.57;;;17.61;44.19
63708;BME280;67643;-34.198;22.084;2023-08-06T05:48:31;101110.54;;;17.59;44.29
63708;BME280;67643;-34.198;22.084;2023-08-06T05:51:00;101112.51;;;17.59;44.30
63708;BME280;67643;-34.198;22.084;2023-08-06T05:53:29;101116.65;;;17.51;44.43
63708;BME280;67643;-34.198;22.084;2023-08-06T05:55:57;101115.20;;;17.56;44.36
63708;BME280;67643;-34.198;22.084;2023-08-06T05:58:27;101121.91;;;17.98;44.48
63708;BME280;67643;-34.198;22.084;2023-08-06T06:00:55;101125.06;;;17.95;44.51
63708;BME280;67643;-34.198;22.084;2023-08-06T06:03:24;101127.65;;;17.40;44.59
63708;BME280;67643;-34.198;22.084;2023-08-06T06:05:52;101131.46;;;17.53;44.36
63708;BME280;67643;-34.198;22.084;2023-08-06T06:08:20;101133.42;;;17.70;44.54
63708;BME280;67643;-34.198;22.084;2023-08-06T06:10:49;101138.80;;;17.47;44.53
63708;BME280;67643;-34.198;22.084;2023-08-06T06:13:18;101139.62;;;17.45;44.48
63708;BME280;67643;-34.198;22.084;2023-08-06T06:15:47;101139.21;;;17.47;44.52
63708;BME280;67643;-34.198;22.084;2023-08-06T06:18:15;101142.95;;;17.76;44.45
63708;BME280;67643;-34.198;22.084;2023-08-06T06:20:44;101149.56;;;17.68;44.59
63708;BME280;67643;-34.198;22.084;2023-08-06T06:23:12;101156.14;;;17.92;44.57
63708;BME280;67643;-34.198;22.084;2023-08-06T06:25:43;101161.19;;;17.44;44.55
63708;BME280;67643;-34.198;22.084;2023-08-06T06:28:11;101164.31;;;17.95;44.53
63708;BME280;67643;-34.198;22.084;2023-08-06T06:30:42;101159.40;;;17.66;44.65
63708;BME280;67643;-34.198;22.084;2023-08-06T06:33:11;101167.15;;;17.46;44.54
63708;BME280;67643;-34.198;22.084;2023-08-06T06:35:39;101167.55;;;17.62;44.24
63708;BME280;67643;-34.198;22.084;2023-08-06T06:38:07;101176.53;;;17.67;44.17
63708;BME280;67643;-34.198;22.084;2023-08-06T06:40:37;101184.63;;;18.20;44.13
63708;BME280;67643;-34.198;22.084;2023-08-06T06:43:05;101182.63;;;17.58;44.38
63708;BME280;67643;-34.198;22.084;2023-08-06T06:45:34;101182.61;;;18.06;44.31
63708;BME280;67643;-34.198;22.084;2023-08-06T06:48:03;101181.85;;;17.84;44.35
63708;BME280;67643;-34.198;22.084;2023-08-06T06:50:31;101178.51;;;17.87;44.40
63708;BME280;67643;-34.198;22.084;2023-08-06T06:53:00;101177.97;;;17.58;44.37
63708;BME280;67643;-34.198;22.084;2023-08-06T06:55:28;101181.51;;;17.63;44.45
63708;BME280;67643;-34.198;22.084;2023-08-06T06:57:57;101182.61;;;17.57;44.46
63708;BME280;67643;-34.198;22.084;2023-08-06T07:00:25;101184.35;;;17.56;44.57
63708;BME280;67643;-34.198;22.084;2023-08-06T07:02:54;101185.82;;;18.01;44.65
63708;BME280;67643;-34.198;22.084;2023-08-06T07:05:23;101179.79;;;17.87;44.61
63708;BME280;67643;-34.198;22.084;2023-08-06T07:07:53;101180.54;;;17.82;44.65
63708;BME280;67643;-34.198;22.084;2023-08-06T07:10:21;101178.27;;;17.83;44.70
63708;BME280;67643;-34.198;22.084;2023-08-06T07:12:50;101180.08;;;17.65;44.56
63708;BME280;67643;-34.198;22.084;2023-08-06T07:15:18;101186.12;;;17.50;44.68
63708;BME280;67643;-34.198;22.084;2023-08-06T07:17:47;101185.11;;;17.96;44.67
63708;BME280;67643;-34.198;22.084;2023-08-06T07:20:16;101188.86;;;17.90;44.92
63708;BME280;67643;-34.198;22.084;2023-08-06T07:22:45;101183.92;;;18.15;44.99
63708;BME280;67643;-34.198;22.084;2023-08-06T07:25:13;101181.96;;;17.70;44.94
63708;BME280;67643;-34.198;22.084;2023-08-06T07:27:42;101183.94;;;17.70;45.13
63708;BME280;67643;-34.198;22.084;2023-08-06T07:30:10;101182.93;;;17.96;45.15
63708;BME280;67643;-34.198;22.084;2023-08-06T07:32:39;101184.14;;;17.98;45.09
63708;BME280;67643;-34.198;22.084;2023-08-06T07:35:08;101183.05;;;18.05;45.05
63708;BME280;67643;-34.198;22.084;2023-08-06T07:37:37;101185.85;;;17.86;45.08
63708;BME280;67643;-34.198;22.084;2023-08-06T07:40:06;101185.87;;;17.93;44.91
63708;BME280;67643;-34.198;22.084;2023-08-06T07:42:35;101189.98;;;18.09;44.54
63708;BME280;67643;-34.198;22.084;2023-08-06T07:45:04;101193.08;;;18.00;44.75
63708;BME280;67643;-34.198;22.084;2023-08-06T07:47:33;101191.08;;;18.07;44.38
63708;BME280;67643;-34.198;22.084;2023-08-06T07:50:01;101186.89;;;18.17;43.81
63708;BME280;67643;-34.198;22.084;2023-08-06T07:52:29;101192.10;;;17.98;44.46
63708;BME280;67643;-34.198;22.084;2023-08-06T07:54:58;101196.35;;;18.08;44.43
63708;BME280;67643;-34.198;22.084;2023-08-06T07:57:27;101191.33;;;17.88;45.02
63708;BME280;67643;-34.198;22.084;2023-08-06T07:59:56;101191.94;;;18.12;44.72
63708;BME280;67643;-34.198;22.084;2023-08-06T08:02:24;101192.34;;;17.97;44.64
63708;BME280;67643;-34.198;22.084;2023-08-06T08:04:53;101195.64;;;17.97;45.00
63708;BME280;67643;-34.198;22.084;2023-08-06T08:07:21;101196.99;;;17.87;45.24
63708;BME280;67643;-34.198;22.084;2023-08-06T08:09:50;101199.30;;;17.95;45.02
63708;BME280;67643;-34.198;22.084;2023-08-06T08:12:18;101202.48;;;18.10;44.76
63708;BME280;67643;-34.198;22.084;2023-08-06T08:14:47;101201.45;;;18.11;44.72
63708;BME280;67643;-34.198;22.084;2023-08-06T08:17:16;101195.65;;;17.60;44.77
63708;BME280;67643;-34.198;22.084;2023-08-06T08:19:44;101197.02;;;17.97;44.63
63708;BME280;67643;-34.198;22.084;2023-08-06T08:22:13;101195.09;;;18.21;44.68
63708;BME280;67643;-34.198;22.084;2023-08-06T08:24:41;101195.23;;;18.04;44.97
63708;BME280;67643;-34.198;22.084;2023-08-06T08:27:10;101192.07;;;17.92;45.24
63708;BME280;67643;-34.198;22.084;2023-08-06T08:29:38;101194.92;;;17.83;45.04
63708;BME280;67643;-34.198;22.084;2023-08-06T08:32:07;101193.35;;;18.07;45.01
63708;BME280;67643;-34.198;22.084;2023-08-06T08:34:35;101191.31;;;18.17;44.90
63708;BME280;67643;-34.198;22.084;2023-08-06T08:37:04;101193.19;;;18.05;45.09
63708;BME280;67643;-34.198;22.084;2023-08-06T08:39:32;101187.80;;;17.87;45.03
63708;BME280;67643;-34.198;22.084;2023-08-06T08:42:01;101185.12;;;18.07;44.68
63708;BME280;67643;-34.198;22.084;2023-08-06T08:44:31;101186.38;;;18.01;44.81
63708;BME280;67643;-34.198;22.084;2023-08-06T08:47:00;101179.64;;;18.33;44.65
63708;BME280;67643;-34.198;22.084;2023-08-06T08:49:29;101178.46;;;18.34;44.63
63708;BME280;67643;-34.198;22.084;2023-08-06T08:52:00;101174.39;;;18.15;44.58
63708;BME280;67643;-34.198;22.084;2023-08-06T08:54:31;101167.01;;;18.47;44.36
63708;BME280;67643;-34.198;22.084;2023-08-06T08:57:01;101166.18;;;18.32;44.30
63708;BME280;67643;-34.198;22.084;2023-08-06T08:59:29;101169.53;;;18.28;44.27
63708;BME280;67643;-34.198;22.084;2023-08-06T09:01:58;101161.34;;;18.39;44.12
63708;BME280;67643;-34.198;22.084;2023-08-06T09:04:29;101153.38;;;18.54;44.28
63708;BME280;67643;-34.198;22.084;2023-08-06T09:06:59;101147.75;;;18.66;44.06
63708;BME280;67643;-34.198;22.084;2023-08-06T09:09:30;101148.32;;;18.18;44.06
63708;BME280;67643;-34.198;22.084;2023-08-06T09:12:01;101148.03;;;18.70;43.93
63708;BME280;67643;-34.198;22.084;2023-08-06T09:14:30;101148.41;;;18.50;43.93
63708;BME280;67643;-34.198;22.084;2023-08-06T09:16:59;101144.80;;;18.27;43.83
63708;BME280;67643;-34.198;22.084;2023-08-06T09:19:27;101146.28;;;18.64;43.61
63708;BME280;67643;-34.198;22.084;2023-08-06T09:21:57;101140.90;;;18.34;43.80
63708;BME280;67643;-34.198;22.084;2023-08-06T09:24:26;101140.22;;;18.28;43.91
63708;BME280;67643;-34.198;22.084;2023-08-06T09:26:55;101135.30;;;18.51;43.53
63708;BME280;67643;-34.198;22.084;2023-08-06T09:29:23;101135.36;;;18.59;43.46
63708;BME280;67643;-34.198;22.084;2023-08-06T09:31:52;101131.23;;;18.80;43.46
63708;BME280;67643;-34.198;22.084;2023-08-06T09:34:23;101129.07;;;18.59;43.42
63708;BME280;67643;-34.198;22.084;2023-08-06T09:36:53;101126.47;;;18.65;43.40
63708;BME280;67643;-34.198;22.084;2023-08-06T09:39:26;101125.51;;;18.70;43.34
63708;BME280;67643;-34.198;22.084;2023-08-06T09:41:57;101117.23;;;18.74;43.33
63708;BME280;67643;-34.198;22.084;2023-08-06T09:44:27;101112.35;;;18.85;43.14
63708;BME280;67643;-34.198;22.084;2023-08-06T09:46:57;101109.43;;;18.86;43.05
63708;BME280;67643;-34.198;22.084;2023-08-06T09:49:28;101103.58;;;18.85;43.10
63708;BME280;67643;-34.198;22.084;2023-08-06T09:52:11;101100.92;;;18.86;42.98
63708;BME280;67643;-34.198;22.084;2023-08-06T09:54:40;101097.79;;;18.92;42.92
63708;BME280;67643;-34.198;22.084;2023-08-06T09:57:12;101095.44;;;19.05;42.76
63708;BME280;67643;-34.198;22.084;2023-08-06T09:59:43;101087.40;;;19.09;42.57
63708;BME280;67643;-34.198;22.084;2023-08-06T10:02:14;101084.61;;;19.02;42.63
63708;BME280;67643;-34.198;22.084;2023-08-06T10:04:45;101075.97;;;18.68;42.58
63708;BME280;67643;-34.198;22.084;2023-08-06T10:07:14;101075.84;;;19.03;42.45
63708;BME280;67643;-34.198;22.084;2023-08-06T10:09:44;101072.28;;;18.96;42.50
63708;BME280;67643;-34.198;22.084;2023-08-06T10:12:13;101072.78;;;19.02;42.35
63708;BME280;67643;-34.198;22.084;2023-08-06T10:14:42;101068.91;;;19.26;42.22
63708;BME280;67643;-34.198;22.084;2023-08-06T10:17:11;101079.08;;;19.29;42.21
63708;BME280;67643;-34.198;22.084;2023-08-06T10:19:40;101081.75;;;19.20;42.22
63708;BME280;67643;-34.198;22.084;2023-08-06T10:22:11;101081.22;;;19.41;42.10
63708;BME280;67643;-34.198;22.084;2023-08-06T10:24:56;101078.76;;;19.27;42.02
63708;BME280;67643;-34.198;22.084;2023-08-06T10:27:31;101070.79;;;19.23;42.10
63708;BME280;67643;-34.198;22.084;2023-08-06T10:30:23;101065.82;;;19.25;42.15
63708;BME280;67643;-34.198;22.084;2023-08-06T10:32:52;101068.62;;;19.33;42.03
63708;BME280;67643;-34.198;22.084;2023-08-06T10:35:38;101065.92;;;19.41;41.93
63708;BME280;67643;-34.198;22.084;2023-08-06T10:38:10;101063.47;;;19.50;41.90
63708;BME280;67643;-34.198;22.084;2023-08-06T10:40:41;101055.15;;;19.17;42.09
63708;BME280;67643;-34.198;22.084;2023-08-06T10:43:25;101055.20;;;19.18;41.84
63708;BME280;67643;-34.198;22.084;2023-08-06T10:45:54;101053.74;;;19.24;42.00
63708;BME280;67643;-34.198;22.084;2023-08-06T10:48:34;101050.92;;;19.20;41.62
63708;BME280;67643;-34.198;22.084;2023-08-06T10:51:03;101053.85;;;19.30;41.48
63708;BME280;67643;-34.198;22.084;2023-08-06T10:53:32;101053.89;;;19.18;41.60
63708;BME280;67643;-34.198;22.084;2023-08-06T10:56:00;101052.56;;;19.49;41.66
63708;BME280;67643;-34.198;22.084;2023-08-06T10:58:32;101052.09;;;19.28;41.72
63708;BME280;67643;-34.198;22.084;2023-08-06T11:01:01;101059.25;;;19.67;41.08
63708;BME280;67643;-34.198;22.084;2023-08-06T11:03:29;101056.94;;;19.33;41.28
63708;BME280;67643;-34.198;22.084;2023-08-06T11:05:57;101056.44;;;19.42;41.07
63708;BME280;67643;-34.198;22.084;2023-08-06T11:08:27;101062.55;;;19.21;41.82
63708;BME280;67643;-34.198;22.084;2023-08-06T11:10:55;101059.19;;;19.36;41.18
63708;BME280;67643;-34.198;22.084;2023-08-06T11:13:36;101061.89;;;19.75;41.19
63708;BME280;67643;-34.198;22.084;2023-08-06T11:16:04;101063.53;;;19.29;41.02
63708;BME280;67643;-34.198;22.084;2023-08-06T11:18:33;101057.58;;;19.21;41.09
63708;BME280;67643;-34.198;22.084;2023-08-06T11:21:03;101056.12;;;19.05;41.43
63708;BME280;67643;-34.198;22.084;2023-08-06T11:23:31;101056.52;;;18.94;41.01
63708;BME280;67643;-34.198;22.084;2023-08-06T11:26:00;101060.23;;;19.28;40.94
63708;BME280;67643;-34.198;22.084;2023-08-06T11:28:28;101061.35;;;19.51;40.97
63708;BME280;67643;-34.198;22.084;2023-08-06T11:30:58;101072.33;;;19.29;41.39
63708;BME280;67643;-34.198;22.084;2023-08-06T11:33:27;101074.93;;;19.11;41.78
63708;BME280;67643;-34.198;22.084;2023-08-06T11:35:57;101076.32;;;19.26;41.41
63708;BME280;67643;-34.198;22.084;2023-08-06T11:38:26;101077.76;;;19.31;41.51
63708;BME280;67643;-34.198;22.084;2023-08-06T11:40:55;101076.26;;;19.56;41.50
63708;BME280;67643;-34.198;22.084;2023-08-06T11:43:23;101076.20;;;19.34;41.29
63708;BME280;67643;-34.198;22.084;2023-08-06T11:45:52;101077.35;;;19.43;41.14
63708;BME280;67643;-34.198;22.084;2023-08-06T11:48:24;101077.28;;;19.46;41.43
63708;BME280;67643;-34.198;22.084;2023-08-06T11:50:55;101074.64;;;19.53;41.89
63708;BME280;67643;-34.198;22.084;2023-08-06T11:53:28;101070.71;;;19.61;41.74
63708;BME280;67643;-34.198;22.084;2023-08-06T11:55:57;101070.55;;;19.39;41.72
63708;BME280;67643;-34.198;22.084;2023-08-06T11:58:26;101067.52;;;19.33;41.93
63708;BME280;67643;-34.198;22.084;2023-08-06T12:00:54;101069.87;;;19.41;41.84
63708;BME280;67643;-34.198;22.084;2023-08-06T12:03:23;101068.78;;;19.38;41.51
63708;BME280;67643;-34.198;22.084;2023-08-06T12:05:54;101068.48;;;19.94;41.60
63708;BME280;67643;-34.198;22.084;2023-08-06T12:08:27;101077.35;;;19.57;41.80
63708;BME280;67643;-34.198;22.084;2023-08-06T12:10:55;101079.69;;;19.44;42.03
63708;BME280;67643;-34.198;22.084;2023-08-06T12:13:23;101078.46;;;19.70;41.61
63708;BME280;67643;-34.198;22.084;2023-08-06T12:15:53;101076.62;;;19.38;42.34
63708;BME280;67643;-34.198;22.084;2023-08-06T12:18:23;101080.28;;;19.48;42.18
63708;BME280;67643;-34.198;22.084;2023-08-06T12:20:51;101076.66;;;19.68;42.16
63708;BME280;67643;-34.198;22.084;2023-08-06T12:23:20;101076.67;;;19.49;42.09
63708;BME280;67643;-34.198;22.084;2023-08-06T12:25:49;101073.38;;;19.39;42.20
63708;BME280;67643;-34.198;22.084;2023-08-06T12:28:17;101077.59;;;19.59;41.86
63708;BME280;67643;-34.198;22.084;2023-08-06T12:30:46;101079.45;;;19.35;42.12
63708;BME280;67643;-34.198;22.084;2023-08-06T12:33:14;101074.52;;;19.04;42.48
63708;BME280;67643;-34.198;22.084;2023-08-06T12:35:42;101071.56;;;19.30;42.02
63708;BME280;67643;-34.198;22.084;2023-08-06T12:38:11;101072.38;;;19.07;42.21
63708;BME280;67643;-34.198;22.084;2023-08-06T12:40:40;101070.40;;;19.18;42.03